createdAt,value
2023-02-02T00:01:51.191Z,99505.76
2023-02-02T00:04:24.648Z,99505.64
2023-02-02T00:06:57.097Z,99502.85
2023-02-02T00:09:28.961Z,99505.94
2023-02-02T00:12:00.150Z,99502.96
2023-02-02T00:14:31.066Z,99506.48
2023-02-02T00:17:01.546Z,99505.04
2023-02-02T00:19:33.578Z,99497.84
2023-02-02T00:22:04.288Z,99497.23
2023-02-02T00:24:34.724Z,99498.57
2023-02-02T00:27:05.301Z,99499.57
2023-02-02T00:29:35.754Z,99492.86
2023-02-02T00:32:06.928Z,99501.02
2023-02-02T00:34:37.791Z,99498.40
2023-02-02T00:37:09.304Z,99496.74
2023-02-02T00:39:39.790Z,99498.39
2023-02-02T00:42:12.073Z,99508.58
2023-02-02T00:45:00.474Z,99512.37
2023-02-02T00:47:31.006Z,99509.30
2023-02-02T00:50:01.480Z,99511.64
2023-02-02T00:52:31.930Z,99503.20
2023-02-02T00:55:02.358Z,99501.47
2023-02-02T00:57:33.005Z,99506.85
2023-02-02T01:00:03.528Z,99510.30
2023-02-02T01:02:33.971Z,99502.83
2023-02-02T01:05:05.423Z,99509.73
2023-02-02T01:07:36.948Z,99512.59
2023-02-02T01:10:09.780Z,99509.52
2023-02-02T01:12:40.348Z,99512.96
2023-02-02T01:15:13.451Z,99513.59
2023-02-02T01:17:43.931Z,99514.59
2023-02-02T01:20:20.077Z,99512.38
2023-02-02T01:22:50.599Z,99510.15
2023-02-02T01:25:21.358Z,99513.41
2023-02-02T01:27:51.952Z,99515.55
2023-02-02T01:30:22.551Z,99518.13
2023-02-02T01:32:53.012Z,99518.30
2023-02-02T01:35:23.819Z,99526.75
2023-02-02T01:37:54.519Z,99527.67
2023-02-02T01:40:24.967Z,99523.82
2023-02-02T01:42:55.444Z,99521.08
2023-02-02T01:45:29.241Z,99517.34
2023-02-02T01:48:01.334Z,99519.71
2023-02-02T01:50:35.751Z,99515.80
2023-02-02T01:53:08.736Z,99508.73
2023-02-02T01:55:42.421Z,99516.23
2023-02-02T01:58:18.231Z,99512.94
2023-02-02T02:00:49.107Z,99516.34
2023-02-02T02:03:22.255Z,99512.69
2023-02-02T02:05:56.268Z,99518.70
2023-02-02T02:08:30.327Z,99510.55
2023-02-02T02:11:01.142Z,99512.33
2023-02-02T02:13:53.908Z,99514.71
2023-02-02T02:16:30.725Z,99513.04
2023-02-02T02:19:15.149Z,99509.81
2023-02-02T02:22:14.890Z,99505.76
2023-02-02T02:25:27.995Z,99504.77
2023-02-02T02:28:28.142Z,99501.02
2023-02-02T02:31:32.200Z,99495.58
2023-02-02T02:34:10.547Z,99488.31
2023-02-02T02:36:49.680Z,99493.60
2023-02-02T02:39:27.480Z,99493.14
2023-02-02T02:42:04.252Z,99491.46
2023-02-02T02:44:37.408Z,99492.68
2023-02-02T02:47:09.518Z,99495.37
2023-02-02T02:49:46.466Z,99490.84
2023-02-02T02:52:17.535Z,99489.83
2023-02-02T02:54:51.337Z,99487.02
2023-02-02T02:57:40.537Z,99488.73
2023-02-02T03:00:25.589Z,99487.20
2023-02-02T03:02:57.917Z,99479.20
2023-02-02T03:05:38.420Z,99482.50
2023-02-02T03:08:17.909Z,99477.86
2023-02-02T03:10:49.921Z,99472.53
2023-02-02T03:13:20.964Z,99475.98
2023-02-02T03:15:51.446Z,99469.81
2023-02-02T03:18:24.500Z,99470.58
2023-02-02T03:20:54.932Z,99468.84
2023-02-02T03:23:25.631Z,99464.34
2023-02-02T03:25:56.804Z,99461.95
2023-02-02T03:28:28.599Z,99455.59
2023-02-02T03:31:02.213Z,99449.71
2023-02-02T03:33:34.346Z,99440.40
2023-02-02T03:36:05.191Z,99428.23
2023-02-02T03:38:35.616Z,99443.26
2023-02-02T03:41:07.421Z,99428.52
2023-02-02T03:43:37.831Z,99437.98
2023-02-02T03:46:09.117Z,99426.75
2023-02-02T03:48:40.462Z,99426.54
2023-02-02T03:51:12.881Z,99422.71
2023-02-02T03:53:44.366Z,99412.77
2023-02-02T03:56:13.299Z,99416.61
2023-02-02T03:58:43.959Z,99422.82
2023-02-02T04:01:15.776Z,99423.29
2023-02-02T04:03:47.027Z,99412.77
2023-02-02T04:06:19.902Z,99425.10
2023-02-02T04:08:50.353Z,99416.82
2023-02-02T04:11:20.950Z,99421.98
2023-02-02T04:13:51.361Z,99419.46
2023-02-02T04:16:21.963Z,99422.73
2023-02-02T04:18:52.411Z,99419.35
2023-02-02T04:21:22.839Z,99420.16
2023-02-02T04:23:53.521Z,99424.67
2023-02-02T04:26:25.724Z,99420.05
2023-02-02T04:28:56.875Z,99427.67
2023-02-02T04:31:27.477Z,99429.24
2023-02-02T04:33:58.086Z,99426.86
2023-02-02T04:36:28.928Z,99425.52
2023-02-02T04:38:59.630Z,99421.41
2023-02-02T04:41:30.045Z,99432.37
2023-02-02T04:44:00.455Z,99436.93
2023-02-02T04:46:32.159Z,99431.52
2023-02-02T04:49:02.556Z,99426.23
2023-02-02T04:51:32.976Z,99422.66
2023-02-02T04:54:03.417Z,99422.60
2023-02-02T04:56:34.287Z,99411.77
2023-02-02T04:59:04.704Z,99410.38
2023-02-02T05:01:35.153Z,99412.70
2023-02-02T05:04:06.078Z,99413.70
2023-02-02T05:06:36.677Z,99414.38
2023-02-02T05:09:07.223Z,99413.69
2023-02-02T05:11:39.045Z,99417.06
2023-02-02T05:14:09.691Z,99413.11
2023-02-02T05:16:40.464Z,99418.27
2023-02-02T05:19:12.643Z,99417.95
2023-02-02T05:21:45.581Z,99415.91
2023-02-02T05:24:16.249Z,99422.61
2023-02-02T05:26:46.778Z,99418.52
2023-02-02T05:29:17.362Z,99418.82
2023-02-02T05:31:47.842Z,99427.06
2023-02-02T05:34:18.816Z,99433.61
2023-02-02T05:36:49.459Z,99431.21
2023-02-02T05:39:19.909Z,99424.92
2023-02-02T05:41:50.330Z,99427.44
2023-02-02T05:44:20.732Z,99427.42
2023-02-02T05:46:51.228Z,99432.48
2023-02-02T05:49:21.658Z,99447.29
2023-02-02T05:51:56.077Z,99432.58
2023-02-02T05:54:27.201Z,99431.52
2023-02-02T05:57:01.149Z,99432.17
2023-02-02T05:59:31.626Z,99432.11
2023-02-02T06:02:02.043Z,99440.29
2023-02-02T06:04:32.495Z,99438.08
2023-02-02T06:07:03.043Z,99451.94
2023-02-02T06:09:33.575Z,99449.56
2023-02-02T06:12:04.185Z,99455.14
2023-02-02T06:14:34.667Z,99460.96
2023-02-02T06:17:06.814Z,99458.73
2023-02-02T06:19:37.437Z,99463.02
2023-02-02T06:22:08.095Z,99465.48
2023-02-02T06:24:38.561Z,99472.29
2023-02-02T06:27:08.971Z,99481.23
2023-02-02T06:29:39.456Z,99483.19
2023-02-02T06:32:09.952Z,99490.48
2023-02-02T06:34:40.430Z,99486.92
2023-02-02T06:37:10.858Z,99487.98
2023-02-02T06:39:41.313Z,99493.29
2023-02-02T06:42:20.836Z,99483.02
2023-02-02T06:44:51.982Z,99487.06
2023-02-02T06:47:22.417Z,99484.38
2023-02-02T06:49:53.009Z,99497.46
2023-02-02T06:52:23.463Z,99505.52
2023-02-02T06:54:53.963Z,99511.02
2023-02-02T06:57:24.572Z,99512.56
2023-02-02T06:59:54.963Z,99513.34
2023-02-02T07:02:25.409Z,99513.98
2023-02-02T07:04:55.903Z,99516.07
2023-02-02T07:07:26.416Z,99527.07
2023-02-02T07:09:58.162Z,99526.15
2023-02-02T07:12:29.192Z,99530.14
2023-02-02T07:15:00.385Z,99535.33
2023-02-02T07:17:30.970Z,99531.02
2023-02-02T07:20:01.406Z,99532.33
2023-02-02T07:22:31.823Z,99531.44
2023-02-02T07:25:02.273Z,99535.73
2023-02-02T07:27:33.112Z,99546.38
2023-02-02T07:30:04.178Z,99554.51
2023-02-02T07:32:34.599Z,99548.35
2023-02-02T07:35:05.656Z,99556.04
2023-02-02T07:37:36.087Z,99556.35
2023-02-02T07:40:08.476Z,99562.46
2023-02-02T07:42:37.392Z,99571.46
2023-02-02T07:45:26.842Z,99572.69
2023-02-02T07:48:01.661Z,99575.87
2023-02-02T07:50:33.030Z,99575.73
2023-02-02T07:53:03.535Z,99599.28
2023-02-02T07:55:33.990Z,99596.71
2023-02-02T07:58:04.420Z,99596.90
2023-02-02T08:00:34.984Z,99596.05
2023-02-02T08:03:05.548Z,99602.78
2023-02-02T08:05:36.052Z,99616.16
2023-02-02T08:08:07.694Z,99620.25
2023-02-02T08:10:38.113Z,99631.95
2023-02-02T08:13:08.594Z,99623.33
2023-02-02T08:15:39.027Z,99637.77
2023-02-02T08:18:09.504Z,99638.30
2023-02-02T08:20:40.049Z,99635.79
2023-02-02T08:23:15.689Z,99642.26
2023-02-02T08:25:46.154Z,99643.98
2023-02-02T08:28:16.641Z,99656.35
2023-02-02T08:30:47.415Z,99661.84
2023-02-02T08:33:17.879Z,99655.20
2023-02-02T08:35:48.417Z,99655.77
2023-02-02T08:38:18.935Z,99669.05
2023-02-02T08:40:49.699Z,99676.77
2023-02-02T08:43:20.122Z,99676.38
2023-02-02T08:46:02.186Z,99682.35
2023-02-02T08:48:36.684Z,99693.80
2023-02-02T08:51:09.229Z,99700.88
2023-02-02T08:53:38.123Z,99702.24
2023-02-02T08:56:11.562Z,99703.81
2023-02-02T08:58:45.816Z,99706.97
2023-02-02T09:01:19.482Z,99708.69
2023-02-02T09:03:50.342Z,99715.02
2023-02-02T09:06:22.272Z,99727.25
2023-02-02T09:08:52.725Z,99731.40
2023-02-02T09:11:23.527Z,99735.20
2023-02-02T09:13:57.458Z,99740.06
2023-02-02T09:16:29.062Z,99753.67
2023-02-02T09:19:00.517Z,99757.96
2023-02-02T09:21:31.197Z,99761.69
2023-02-02T09:24:01.680Z,99765.00
2023-02-02T09:26:32.124Z,99769.09
2023-02-02T09:29:05.460Z,99775.91
2023-02-02T09:31:38.521Z,99782.40
2023-02-02T09:34:11.219Z,99786.65
2023-02-02T09:36:42.641Z,99792.73
2023-02-02T09:39:15.202Z,99795.48
2023-02-02T09:42:23.129Z,99799.29
2023-02-02T09:45:01.159Z,99795.26
2023-02-02T09:47:48.135Z,99798.59
2023-02-02T09:50:23.300Z,99799.19
2023-02-02T09:52:59.735Z,99805.03
2023-02-02T09:55:36.353Z,99813.82
2023-02-02T09:58:13.969Z,99815.04
2023-02-02T10:00:49.163Z,99821.98
2023-02-02T10:03:26.360Z,99822.09
2023-02-02T10:06:03.133Z,99826.05
2023-02-02T10:08:39.941Z,99833.85
2023-02-02T10:11:29.019Z,99826.04
2023-02-02T10:14:04.199Z,99836.78
2023-02-02T10:16:36.591Z,99837.89
2023-02-02T10:19:06.374Z,99843.17
2023-02-02T10:21:42.433Z,99848.65
2023-02-02T10:24:20.343Z,99852.48
2023-02-02T10:26:54.511Z,99856.31
2023-02-02T10:29:48.965Z,99859.89
2023-02-02T10:32:26.172Z,99856.25
2023-02-02T10:35:25.101Z,99858.88
2023-02-02T10:38:02.745Z,99865.72
2023-02-02T10:40:48.894Z,99863.68
2023-02-02T10:43:47.681Z,99868.77
2023-02-02T10:46:23.421Z,99869.52
2023-02-02T10:49:06.591Z,99871.07
2023-02-02T10:51:38.036Z,99877.55
2023-02-02T10:54:20.557Z,99875.46
2023-02-02T10:56:55.273Z,99881.21
2023-02-02T10:59:31.117Z,99883.23
2023-02-02T11:02:18.993Z,99883.27
2023-02-02T11:05:08.748Z,99886.54
2023-02-02T11:07:39.580Z,99888.99
2023-02-02T11:10:11.682Z,99895.21
2023-02-02T11:12:50.991Z,99890.86
2023-02-02T11:15:30.221Z,99894.08
2023-02-02T11:18:16.415Z,99892.13
2023-02-02T11:20:47.520Z,99891.60
2023-02-02T11:23:22.078Z,99902.35
2023-02-02T11:26:05.353Z,99904.14
2023-02-02T11:28:38.619Z,99903.27
2023-02-02T11:31:09.167Z,99914.05
2023-02-02T11:33:39.875Z,99914.29
2023-02-02T11:36:22.903Z,99922.39
2023-02-02T11:39:22.396Z,99919.37
2023-02-02T11:41:59.260Z,99921.96
2023-02-02T11:44:34.229Z,99928.27
2023-02-02T11:47:06.367Z,99929.79
2023-02-02T11:49:44.550Z,99938.61
2023-02-02T11:52:23.092Z,99937.80
2023-02-02T11:54:56.303Z,99945.66
2023-02-02T11:57:28.859Z,99947.17
2023-02-02T12:00:19.605Z,99944.90
2023-02-02T12:02:51.423Z,99945.39
2023-02-02T12:05:38.015Z,99945.50
2023-02-02T12:08:12.677Z,99948.58
2023-02-02T12:10:48.103Z,99953.69
2023-02-02T12:13:27.574Z,99954.64
2023-02-02T12:16:09.060Z,99963.33
2023-02-02T12:18:49.097Z,99959.19
2023-02-02T12:21:32.041Z,99971.02
2023-02-02T12:24:20.568Z,99973.95
2023-02-02T12:26:57.414Z,99974.29
2023-02-02T12:29:44.549Z,99977.83
2023-02-02T12:32:41.744Z,99984.16
2023-02-02T12:35:42.556Z,99988.46
2023-02-02T12:38:21.895Z,99985.85
2023-02-02T12:41:13.933Z,99994.70
2023-02-02T12:43:46.611Z,100003.46
2023-02-02T12:46:36.657Z,100003.29
2023-02-02T12:49:26.918Z,100000.04
2023-02-02T12:52:17.686Z,100006.46
2023-02-02T12:55:00.135Z,100009.77
2023-02-02T12:57:44.214Z,100018.28
2023-02-02T13:00:27.027Z,100014.23
2023-02-02T13:03:10.299Z,100018.45
2023-02-02T13:08:48.822Z,100022.18
2023-02-02T13:11:31.426Z,100013.21
2023-02-02T13:14:08.397Z,100018.09
2023-02-02T13:16:41.818Z,100021.55
2023-02-02T13:19:21.970Z,100028.00
2023-02-02T13:21:54.861Z,100032.82
2023-02-02T13:24:30.813Z,100032.34
2023-02-02T13:27:04.173Z,100027.48
2023-02-02T13:29:47.713Z,100034.27
2023-02-02T13:32:25.961Z,100039.58
2023-02-02T13:35:00.171Z,100049.61
2023-02-02T13:37:37.870Z,100050.70
2023-02-02T13:40:21.855Z,100055.10
2023-02-02T13:43:01.341Z,100065.68
2023-02-02T13:45:44.795Z,100072.71
2023-02-02T13:48:24.403Z,100077.63
2023-02-02T13:51:14.194Z,100081.03
2023-02-02T13:53:58.588Z,100086.44
2023-02-02T13:56:40.485Z,100088.91
2023-02-02T13:59:34.842Z,100095.10
2023-02-02T14:02:07.472Z,100099.95
2023-02-02T14:04:38.927Z,100104.92
2023-02-02T14:07:10.755Z,100108.02
2023-02-02T14:09:41.197Z,100108.80
2023-02-02T14:12:13.231Z,100107.58
2023-02-02T14:14:48.420Z,100110.67
2023-02-02T14:17:53.421Z,100109.73
2023-02-02T14:20:50.271Z,100125.64
2023-02-02T14:23:55.663Z,100130.63
2023-02-02T14:26:47.923Z,100138.61
2023-02-02T14:29:58.505Z,100143.83
2023-02-02T14:32:42.071Z,100144.84
2023-02-02T14:35:47.590Z,100152.34
2023-02-02T14:38:25.327Z,100159.08
2023-02-02T14:41:02.813Z,100164.69
2023-02-02T14:43:48.077Z,100168.17
2023-02-02T14:46:37.277Z,100172.33
2023-02-02T14:49:27.405Z,100169.89
2023-02-02T14:52:01.377Z,100176.57
2023-02-02T14:54:36.695Z,100181.79
2023-02-02T14:57:22.985Z,100182.29
2023-02-02T14:59:55.132Z,100192.52
2023-02-02T15:02:34.860Z,100195.16
2023-02-02T15:05:40.317Z,100200.32
2023-02-02T15:08:26.356Z,100209.00
2023-02-02T15:11:26.708Z,100210.24
2023-02-02T15:14:07.329Z,100223.92
2023-02-02T15:16:40.720Z,100233.66
2023-02-02T15:19:22.198Z,100233.54
2023-02-02T15:21:57.600Z,100239.85
2023-02-02T15:24:31.471Z,100250.30
2023-02-02T15:27:04.701Z,100260.14
2023-02-02T15:29:43.179Z,100262.41
2023-02-02T15:32:20.552Z,100265.11
2023-02-02T15:34:54.892Z,100270.38
2023-02-02T15:37:34.320Z,100279.00
2023-02-02T15:40:08.598Z,100284.73
2023-02-02T15:42:56.591Z,100300.16
2023-02-02T15:45:37.909Z,100309.36
2023-02-02T15:48:18.449Z,100317.80
2023-02-02T15:50:54.665Z,100323.30
2023-02-02T15:53:28.114Z,100327.72
2023-02-02T15:55:59.756Z,100337.83
2023-02-02T15:58:33.118Z,100350.09
2023-02-02T16:01:07.006Z,100354.90
2023-02-02T16:03:51.468Z,100364.73
2023-02-02T16:06:22.676Z,100374.64
2023-02-02T16:08:53.178Z,100387.94
2023-02-02T16:11:24.888Z,100391.61
2023-02-02T16:14:02.837Z,100402.38
2023-02-02T16:16:35.119Z,100408.87
2023-02-02T16:19:13.039Z,100414.76
2023-02-02T16:21:45.504Z,100421.97
2023-02-02T16:24:19.018Z,100428.53
2023-02-02T16:26:50.679Z,100436.59
2023-02-02T16:29:22.221Z,100442.62
2023-02-02T16:31:53.311Z,100453.23
2023-02-02T16:34:47.437Z,100457.86
2023-02-02T16:37:23.271Z,100467.35
2023-02-02T16:39:54.236Z,100476.42
2023-02-02T16:42:30.371Z,100479.83
2023-02-02T16:45:01.580Z,100485.90
2023-02-02T16:47:40.098Z,100492.86
2023-02-02T16:50:28.976Z,100503.61
2023-02-02T16:53:02.692Z,100509.22
2023-02-02T16:55:50.492Z,100520.14
2023-02-02T16:58:24.840Z,100527.64
2023-02-02T17:01:14.966Z,100535.48
2023-02-02T17:03:50.510Z,100540.30
2023-02-02T17:06:42.109Z,100548.05
2023-02-02T17:09:34.326Z,100558.48
2023-02-02T17:12:14.242Z,100567.10
2023-02-02T17:14:59.531Z,100573.98
2023-02-02T17:17:30.391Z,100580.78
2023-02-02T17:20:00.913Z,100587.74
2023-02-02T17:22:33.810Z,100597.95
2023-02-02T17:25:04.684Z,100603.02
2023-02-02T17:27:36.852Z,100604.27
2023-02-02T17:30:15.175Z,100609.40
2023-02-02T17:32:45.833Z,100612.33
2023-02-02T17:35:19.771Z,100624.14
2023-02-02T17:37:51.884Z,100633.77
2023-02-02T17:40:24.529Z,100641.46
2023-02-02T17:42:55.752Z,100654.17
2023-02-02T17:45:33.626Z,100658.41
2023-02-02T17:48:05.595Z,100658.64
2023-02-02T17:50:37.819Z,100665.66
2023-02-02T17:53:11.116Z,100665.94
2023-02-02T17:55:43.594Z,100670.55
2023-02-02T17:58:17.562Z,100679.77
2023-02-02T18:00:50.822Z,100684.52
2023-02-02T18:03:24.466Z,100685.77
2023-02-02T18:05:57.645Z,100689.85
2023-02-02T18:08:28.221Z,100692.14
2023-02-02T18:11:00.150Z,100691.65
2023-02-02T18:13:30.624Z,100693.96
2023-02-02T18:16:01.116Z,100698.89
2023-02-02T18:18:31.612Z,100707.20
2023-02-02T18:21:02.821Z,100713.18
2023-02-02T18:23:33.215Z,100715.56
2023-02-02T18:26:17.568Z,100714.08
2023-02-02T18:28:49.681Z,100719.05
2023-02-02T18:31:24.044Z,100721.08
2023-02-02T18:33:55.041Z,100724.38
2023-02-02T18:36:25.758Z,100731.91
2023-02-02T18:38:58.080Z,100733.45
2023-02-02T18:41:28.593Z,100743.10
2023-02-02T18:43:59.041Z,100742.22
2023-02-02T18:46:33.950Z,100753.46
2023-02-02T18:49:05.046Z,100766.20
2023-02-02T18:51:35.797Z,100771.86
2023-02-02T18:54:06.507Z,100774.39
2023-02-02T18:56:37.137Z,100783.95
2023-02-02T18:59:07.916Z,100787.12
2023-02-02T19:01:38.356Z,100792.02
2023-02-02T19:04:08.921Z,100797.59
2023-02-02T19:06:57.081Z,100803.91
2023-02-02T19:09:27.594Z,100808.91
2023-02-02T19:11:58.905Z,100809.23
2023-02-02T19:14:34.520Z,100807.66
2023-02-02T19:17:21.383Z,100814.61
2023-02-02T19:19:51.906Z,100813.84
2023-02-02T19:22:24.496Z,100818.07
2023-02-02T19:24:53.391Z,100818.09
2023-02-02T19:27:26.659Z,100825.09
2023-02-02T19:30:01.573Z,100834.05
2023-02-02T19:32:35.181Z,100834.08
2023-02-02T19:35:16.642Z,100832.29
2023-02-02T19:37:48.503Z,100835.55
2023-02-02T19:40:25.076Z,100842.46
2023-02-02T19:42:58.597Z,100847.42
2023-02-02T19:45:32.925Z,100857.18
2023-02-02T19:48:15.381Z,100853.86
2023-02-02T19:50:47.707Z,100861.71
2023-02-02T19:53:23.935Z,100869.45
2023-02-02T19:55:55.024Z,100871.13
2023-02-02T19:58:28.301Z,100871.33
2023-02-02T20:01:02.109Z,100874.06
2023-02-02T20:03:43.062Z,100871.55
2023-02-02T20:06:18.027Z,100874.37
2023-02-02T20:08:48.497Z,100877.69
2023-02-02T20:11:33.021Z,100885.98
2023-02-02T20:14:21.532Z,100890.36
2023-02-02T20:16:54.080Z,100902.91
2023-02-02T20:19:24.254Z,100907.19
2023-02-02T20:21:56.131Z,100917.05
2023-02-02T20:24:28.891Z,100924.45
2023-02-02T20:27:05.597Z,100927.75
2023-02-02T20:29:44.156Z,100926.36
2023-02-02T20:32:22.484Z,100929.48
2023-02-02T20:34:54.051Z,100932.34
2023-02-02T20:37:29.156Z,100935.77
2023-02-02T20:40:02.192Z,100939.49
2023-02-02T20:42:32.871Z,100940.78
2023-02-02T20:45:03.289Z,100945.81
2023-02-02T20:47:34.099Z,100947.58
2023-02-02T20:50:05.090Z,100958.62
2023-02-02T20:52:36.079Z,100961.08
2023-02-02T20:55:07.725Z,100958.58
2023-02-02T20:57:40.315Z,100962.84
2023-02-02T21:00:11.612Z,100966.11
2023-02-02T21:02:42.155Z,100966.88
2023-02-02T21:05:12.880Z,100967.51
2023-02-02T21:07:43.599Z,100972.87
2023-02-02T21:10:14.488Z,100968.98
2023-02-02T21:12:46.810Z,100967.95
2023-02-02T21:15:20.340Z,100969.99
2023-02-02T21:17:50.828Z,100971.73
2023-02-02T21:20:22.323Z,100970.23
2023-02-02T21:22:52.738Z,100966.08
2023-02-02T21:25:23.298Z,100966.34
2023-02-02T21:28:00.327Z,100963.66
2023-02-02T21:30:31.288Z,100965.42
2023-02-02T21:33:02.211Z,100963.57
2023-02-02T21:35:33.065Z,100961.98
2023-02-02T21:38:10.937Z,100955.56
2023-02-02T21:40:42.343Z,100961.39
2023-02-02T21:43:18.669Z,100959.85
2023-02-02T21:45:52.917Z,100962.35
2023-02-02T21:48:33.747Z,100962.73
2023-02-02T21:51:21.136Z,100960.09
2023-02-02T21:53:51.938Z,100964.48
2023-02-02T21:56:29.218Z,100965.02
2023-02-02T21:59:02.003Z,100971.33
2023-02-02T22:01:37.670Z,100969.55
2023-02-02T22:04:16.967Z,100970.44
2023-02-02T22:06:49.064Z,100968.85
2023-02-02T22:09:25.683Z,100969.59
2023-02-02T22:11:59.563Z,100970.50
2023-02-02T22:14:38.172Z,100975.50
2023-02-02T22:17:22.800Z,100973.75
2023-02-02T22:19:55.931Z,100969.45
2023-02-02T22:22:32.071Z,100970.86
2023-02-02T22:25:07.422Z,100973.20
2023-02-02T22:27:43.618Z,100975.64
2023-02-02T22:30:26.977Z,100974.08
2023-02-02T22:32:57.926Z,100978.59
2023-02-02T22:35:28.345Z,100977.38
2023-02-02T22:37:58.760Z,100974.72
2023-02-02T22:40:29.998Z,100980.85
2023-02-02T22:43:02.278Z,100986.73
2023-02-02T22:45:32.779Z,100989.23
2023-02-02T22:48:03.365Z,100994.46
2023-02-02T22:50:35.243Z,101000.65
2023-02-02T22:53:06.119Z,101001.64
2023-02-02T22:55:36.711Z,101006.33
2023-02-02T22:58:07.188Z,101002.84
2023-02-02T23:00:37.718Z,101003.85
2023-02-02T23:03:08.304Z,101001.90
2023-02-02T23:05:38.802Z,101007.30
2023-02-02T23:08:09.632Z,101005.20
2023-02-02T23:10:40.204Z,101007.91
2023-02-02T23:13:10.619Z,101010.09
2023-02-02T23:15:41.096Z,101013.27
2023-02-02T23:18:11.612Z,101018.02
2023-02-02T23:20:42.038Z,101017.91
2023-02-02T23:23:12.435Z,101018.42
2023-02-02T23:25:42.854Z,101019.04
2023-02-02T23:28:13.323Z,101020.13
2023-02-02T23:30:44.014Z,101014.72
2023-02-02T23:33:14.572Z,101013.13
2023-02-02T23:35:44.996Z,101015.71
2023-02-02T23:38:17.881Z,101016.20
2023-02-02T23:40:48.304Z,101014.86
2023-02-02T23:43:18.710Z,101015.52
2023-02-02T23:45:49.286Z,101015.73
2023-02-02T23:48:19.700Z,101017.52
2023-02-02T23:50:50.326Z,101017.72
2023-02-02T23:53:21.050Z,101016.79
2023-02-02T23:55:52.164Z,101017.20
2023-02-02T23:58:22.596Z,101012.48
